sensor_id;sensor_type;location;lat;lon;timestamp;P1;durP1;ratioP1;P2;durP2;ratioP2
4732;SDS011;2380;53.668;10.008;2023-02-24T00:00:52;3.60;;;1.53;;
4732;SDS011;2380;53.668;10.008;2023-02-24T00:03:21;3.13;;;0.90;;
4732;SDS011;2380;53.668;10.008;2023-02-24T00:05:51;3.60;;;0.73;;
4732;SDS011;2380;53.668;10.008;2023-02-24T00:08:20;4.03;;;1.40;;
4732;SDS011;2380;53.668;10.008;2023-02-24T00:10:53;2.87;;;0.83;;
4732;SDS011;2380;53.668;10.008;2023-02-24T00:13:22;5.80;;;0.90;;
4732;SDS011;2380;53.668;10.008;2023-02-24T00:15:59;6.40;;;0.83;;
4732;SDS011;2380;53.668;10.008;2023-02-24T00:18:29;6.00;;;0.97;;
4732;SDS011;2380;53.668;10.008;2023-02-24T00:21:03;5.87;;;0.93;;
4732;SDS011;2380;53.668;10.008;2023-02-24T00:23:36;8.37;;;1.33;;
4732;SDS011;2380;53.668;10.008;2023-02-24T00:26:09;7.53;;;0.83;;
4732;SDS011;2380;53.668;10.008;2023-02-24T00:28:39;4.47;;;0.97;;
4732;SDS011;2380;53.668;10.008;2023-02-24T00:31:10;4.27;;;0.87;;
4732;SDS011;2380;53.668;10.008;2023-02-24T00:33:41;3.83;;;0.90;;
4732;SDS011;2380;53.668;10.008;2023-02-24T00:36:13;9.53;;;1.20;;
4732;SDS011;2380;53.668;10.008;2023-02-24T00:38:49;11.10;;;1.17;;
4732;SDS011;2380;53.668;10.008;2023-02-24T00:41:24;5.10;;;0.70;;
4732;SDS011;2380;53.668;10.008;2023-02-24T00:43:55;3.20;;;0.73;;
4732;SDS011;2380;53.668;10.008;2023-02-24T00:46:32;5.07;;;0.93;;
4732;SDS011;2380;53.668;10.008;2023-02-24T00:49:04;5.13;;;1.00;;
4732;SDS011;2380;53.668;10.008;2023-02-24T00:51:38;7.07;;;1.27;;
4732;SDS011;2380;53.668;10.008;2023-02-24T00:54:09;9.13;;;1.33;;
4732;SDS011;2380;53.668;10.008;2023-02-24T00:56:44;7.43;;;1.20;;
4732;SDS011;2380;53.668;10.008;2023-02-24T00:59:16;6.07;;;0.83;;
4732;SDS011;2380;53.668;10.008;2023-02-24T01:01:47;7.10;;;1.23;;
4732;SDS011;2380;53.668;10.008;2023-02-24T01:04:17;13.10;;;1.70;;
4732;SDS011;2380;53.668;10.008;2023-02-24T01:06:48;9.50;;;1.43;;
4732;SDS011;2380;53.668;10.008;2023-02-24T01:09:26;6.47;;;2.00;;
4732;SDS011;2380;53.668;10.008;2023-02-24T01:11:59;11.27;;;1.43;;
4732;SDS011;2380;53.668;10.008;2023-02-24T01:14:42;6.20;;;1.07;;
4732;SDS011;2380;53.668;10.008;2023-02-24T01:17:13;7.53;;;1.20;;
4732;SDS011;2380;53.668;10.008;2023-02-24T01:19:43;7.83;;;1.90;;
4732;SDS011;2380;53.668;10.008;2023-02-24T01:22:16;4.30;;;1.10;;
4732;SDS011;2380;53.668;10.008;2023-02-24T01:24:46;2.87;;;1.10;;
4732;SDS011;2380;53.668;10.008;2023-02-24T01:27:18;4.83;;;1.20;;
4732;SDS011;2380;53.668;10.008;2023-02-24T01:29:48;5.50;;;1.30;;
4732;SDS011;2380;53.668;10.008;2023-02-24T01:32:19;8.37;;;1.20;;
4732;SDS011;2380;53.668;10.008;2023-02-24T01:34:51;7.23;;;1.10;;
4732;SDS011;2380;53.668;10.008;2023-02-24T01:37:21;13.97;;;1.93;;
4732;SDS011;2380;53.668;10.008;2023-02-24T01:39:51;7.77;;;1.43;;
4732;SDS011;2380;53.668;10.008;2023-02-24T01:42:23;12.27;;;1.37;;
4732;SDS011;2380;53.668;10.008;2023-02-24T01:47:41;7.83;;;1.63;;
4732;SDS011;2380;53.668;10.008;2023-02-24T01:50:12;7.40;;;1.27;;
4732;SDS011;2380;53.668;10.008;2023-02-24T01:52:46;12.20;;;1.60;;
4732;SDS011;2380;53.668;10.008;2023-02-24T01:55:23;12.83;;;1.70;;
4732;SDS011;2380;53.668;10.008;2023-02-24T01:57:57;8.00;;;1.40;;
4732;SDS011;2380;53.668;10.008;2023-02-24T02:00:30;15.57;;;1.60;;
4732;SDS011;2380;53.668;10.008;2023-02-24T02:03:12;5.80;;;1.10;;
4732;SDS011;2380;53.668;10.008;2023-02-24T02:05:50;9.40;;;1.20;;
4732;SDS011;2380;53.668;10.008;2023-02-24T02:08:21;5.00;;;1.10;;
4732;SDS011;2380;53.668;10.008;2023-02-24T02:10:51;4.60;;;1.30;;
4732;SDS011;2380;53.668;10.008;2023-02-24T02:13:28;3.70;;;1.10;;
4732;SDS011;2380;53.668;10.008;2023-02-24T02:19:03;10.03;;;1.67;;
4732;SDS011;2380;53.668;10.008;2023-02-24T02:21:49;8.47;;;1.17;;
4732;SDS011;2380;53.668;10.008;2023-02-24T02:24:38;16.87;;;1.77;;
4732;SDS011;2380;53.668;10.008;2023-02-24T02:27:18;9.10;;;1.40;;
4732;SDS011;2380;53.668;10.008;2023-02-24T02:33:15;4.03;;;0.93;;
4732;SDS011;2380;53.668;10.008;2023-02-24T02:36:09;7.63;;;0.87;;
4732;SDS011;2380;53.668;10.008;2023-02-24T02:38:44;8.13;;;1.33;;
4732;SDS011;2380;53.668;10.008;2023-02-24T02:41:21;3.80;;;1.23;;
4732;SDS011;2380;53.668;10.008;2023-02-24T02:43:56;9.43;;;1.50;;
4732;SDS011;2380;53.668;10.008;2023-02-24T02:46:33;13.73;;;1.60;;
4732;SDS011;2380;53.668;10.008;2023-02-24T02:49:10;6.07;;;1.53;;
4732;SDS011;2380;53.668;10.008;2023-02-24T02:51:46;6.67;;;1.47;;
4732;SDS011;2380;53.668;10.008;2023-02-24T02:54:18;9.07;;;1.33;;
4732;SDS011;2380;53.668;10.008;2023-02-24T02:56:54;6.83;;;1.13;;
4732;SDS011;2380;53.668;10.008;2023-02-24T02:59:27;7.10;;;0.93;;
4732;SDS011;2380;53.668;10.008;2023-02-24T03:01:58;9.53;;;1.03;;
4732;SDS011;2380;53.668;10.008;2023-02-24T03:04:38;7.80;;;1.13;;
4732;SDS011;2380;53.668;10.008;2023-02-24T03:07:12;7.23;;;1.10;;
4732;SDS011;2380;53.668;10.008;2023-02-24T03:09:43;4.23;;;0.93;;
4732;SDS011;2380;53.668;10.008;2023-02-24T03:12:15;6.10;;;0.77;;
4732;SDS011;2380;53.668;10.008;2023-02-24T03:14:48;10.30;;;1.57;;
4732;SDS011;2380;53.668;10.008;2023-02-24T03:17:22;3.23;;;1.00;;
4732;SDS011;2380;53.668;10.008;2023-02-24T03:19:54;5.30;;;0.90;;
4732;SDS011;2380;53.668;10.008;2023-02-24T03:22:44;5.87;;;1.07;;
4732;SDS011;2380;53.668;10.008;2023-02-24T03:25:18;3.53;;;1.07;;
4732;SDS011;2380;53.668;10.008;2023-02-24T03:27:49;5.23;;;1.33;;
4732;SDS011;2380;53.668;10.008;2023-02-24T03:30:22;4.27;;;1.00;;
4732;SDS011;2380;53.668;10.008;2023-02-24T03:32:56;2.30;;;0.80;;
4732;SDS011;2380;53.668;10.008;2023-02-24T03:35:31;9.23;;;1.00;;
4732;SDS011;2380;53.668;10.008;2023-02-24T03:38:06;14.47;;;3.13;;
4732;SDS011;2380;53.668;10.008;2023-02-24T03:40:36;3.87;;;0.80;;
4732;SDS011;2380;53.668;10.008;2023-02-24T03:43:09;5.77;;;1.50;;
4732;SDS011;2380;53.668;10.008;2023-02-24T03:45:42;20.97;;;1.70;;
4732;SDS011;2380;53.668;10.008;2023-02-24T03:48:12;5.83;;;1.17;;
4732;SDS011;2380;53.668;10.008;2023-02-24T03:50:42;13.23;;;1.17;;
4732;SDS011;2380;53.668;10.008;2023-02-24T03:53:20;6.30;;;1.33;;
4732;SDS011;2380;53.668;10.008;2023-02-24T03:56:00;2.93;;;0.70;;
4732;SDS011;2380;53.668;10.008;2023-02-24T03:58:38;3.53;;;1.30;;
4732;SDS011;2380;53.668;10.008;2023-02-24T04:01:13;3.03;;;0.83;;
4732;SDS011;2380;53.668;10.008;2023-02-24T04:03:48;5.20;;;1.43;;
4732;SDS011;2380;53.668;10.008;2023-02-24T04:06:26;4.47;;;0.90;;
4732;SDS011;2380;53.668;10.008;2023-02-24T04:09:04;3.93;;;0.93;;
4732;SDS011;2380;53.668;10.008;2023-02-24T04:11:40;3.40;;;1.00;;
4732;SDS011;2380;53.668;10.008;2023-02-24T04:14:13;5.73;;;0.90;;
4732;SDS011;2380;53.668;10.008;2023-02-24T04:16:52;6.10;;;1.53;;
4732;SDS011;2380;53.668;10.008;2023-02-24T04:19:27;3.93;;;0.63;;
4732;SDS011;2380;53.668;10.008;2023-02-24T04:21:59;4.20;;;0.90;;
4732;SDS011;2380;53.668;10.008;2023-02-24T04:24:31;11.93;;;1.40;;
4732;SDS011;2380;53.668;10.008;2023-02-24T04:27:02;11.80;;;0.73;;
4732;SDS011;2380;53.668;10.008;2023-02-24T04:29:35;5.73;;;0.87;;
4732;SDS011;2380;53.668;10.008;2023-02-24T04:32:12;7.63;;;0.90;;
4732;SDS011;2380;53.668;10.008;2023-02-24T04:34:42;1.60;;;0.80;;
4732;SDS011;2380;53.668;10.008;2023-02-24T04:37:12;6.40;;;0.80;;
4732;SDS011;2380;53.668;10.008;2023-02-24T04:39:44;5.27;;;1.30;;
4732;SDS011;2380;53.668;10.008;2023-02-24T04:42:13;11.43;;;0.93;;
4732;SDS011;2380;53.668;10.008;2023-02-24T04:44:45;14.97;;;0.83;;
4732;SDS011;2380;53.668;10.008;2023-02-24T04:47:14;4.80;;;1.10;;
4732;SDS011;2380;53.668;10.008;2023-02-24T04:49:44;10.83;;;1.20;;
4732;SDS011;2380;53.668;10.008;2023-02-24T04:52:13;7.67;;;0.90;;
4732;SDS011;2380;53.668;10.008;2023-02-24T04:54:48;3.67;;;1.20;;
4732;SDS011;2380;53.668;10.008;2023-02-24T04:57:18;3.40;;;0.70;;
4732;SDS011;2380;53.668;10.008;2023-02-24T04:59:47;2.23;;;0.90;;
4732;SDS011;2380;53.668;10.008;2023-02-24T05:02:19;9.13;;;1.47;;
4732;SDS011;2380;53.668;10.008;2023-02-24T05:04:51;2.43;;;0.63;;
4732;SDS011;2380;53.668;10.008;2023-02-24T05:07:20;5.40;;;1.77;;
4732;SDS011;2380;53.668;10.008;2023-02-24T05:09:53;5.47;;;1.10;;
4732;SDS011;2380;53.668;10.008;2023-02-24T05:12:23;5.53;;;1.03;;
4732;SDS011;2380;53.668;10.008;2023-02-24T05:14:54;5.47;;;1.13;;
4732;SDS011;2380;53.668;10.008;2023-02-24T05:17:26;7.37;;;1.03;;
4732;SDS011;2380;53.668;10.008;2023-02-24T05:19:56;5.83;;;1.13;;
4732;SDS011;2380;53.668;10.008;2023-02-24T05:22:37;8.10;;;1.37;;
4732;SDS011;2380;53.668;10.008;2023-02-24T05:25:10;4.70;;;0.97;;
4732;SDS011;2380;53.668;10.008;2023-02-24T05:27:39;1.53;;;0.50;;
4732;SDS011;2380;53.668;10.008;2023-02-24T05:30:10;2.00;;;0.73;;
4732;SDS011;2380;53.668;10.008;2023-02-24T05:32:40;15.87;;;1.13;;
4732;SDS011;2380;53.668;10.008;2023-02-24T05:35:10;5.30;;;0.70;;
4732;SDS011;2380;53.668;10.008;2023-02-24T05:37:40;4.67;;;1.33;;
4732;SDS011;2380;53.668;10.008;2023-02-24T05:40:12;2.30;;;0.83;;
4732;SDS011;2380;53.668;10.008;2023-02-24T05:42:45;2.87;;;0.93;;
4732;SDS011;2380;53.668;10.008;2023-02-24T05:45:17;4.55;;;0.95;;
4732;SDS011;2380;53.668;10.008;2023-02-24T05:47:46;16.10;;;1.70;;
4732;SDS011;2380;53.668;10.008;2023-02-24T05:50:16;2.30;;;1.00;;
4732;SDS011;2380;53.668;10.008;2023-02-24T05:52:51;3.37;;;0.87;;
4732;SDS011;2380;53.668;10.008;2023-02-24T05:55:23;2.37;;;0.90;;
4732;SDS011;2380;53.668;10.008;2023-02-24T05:57:53;3.47;;;0.80;;
4732;SDS011;2380;53.668;10.008;2023-02-24T06:00:24;2.97;;;0.77;;
4732;SDS011;2380;53.668;10.008;2023-02-24T06:02:53;4.10;;;1.43;;
4732;SDS011;2380;53.668;10.008;2023-02-24T06:05:33;8.63;;;1.83;;
4732;SDS011;2380;53.668;10.008;2023-02-24T06:08:05;2.72;;;0.82;;
4732;SDS011;2380;53.668;10.008;2023-02-24T06:10:39;5.83;;;1.20;;
4732;SDS011;2380;53.668;10.008;2023-02-24T06:13:11;6.97;;;0.80;;
4732;SDS011;2380;53.668;10.008;2023-02-24T06:15:41;3.70;;;1.30;;
4732;SDS011;2380;53.668;10.008;2023-02-24T06:18:15;2.53;;;1.07;;
4732;SDS011;2380;53.668;10.008;2023-02-24T06:20:46;10.82;;;1.00;;
4732;SDS011;2380;53.668;10.008;2023-02-24T06:23:16;2.00;;;0.63;;
4732;SDS011;2380;53.668;10.008;2023-02-24T06:25:48;2.22;;;1.05;;
4732;SDS011;2380;53.668;10.008;2023-02-24T06:28:18;3.10;;;1.10;;
4732;SDS011;2380;53.668;10.008;2023-02-24T06:30:47;11.95;;;1.40;;
4732;SDS011;2380;53.668;10.008;2023-02-24T06:33:17;5.30;;;1.80;;
4732;SDS011;2380;53.668;10.008;2023-02-24T06:35:47;11.32;;;1.52;;
4732;SDS011;2380;53.668;10.008;2023-02-24T06:38:18;8.05;;;1.40;;
4732;SDS011;2380;53.668;10.008;2023-02-24T06:40:50;7.65;;;1.67;;
4732;SDS011;2380;53.668;10.008;2023-02-24T06:43:22;6.00;;;1.63;;
4732;SDS011;2380;53.668;10.008;2023-02-24T06:45:52;3.67;;;1.00;;
4732;SDS011;2380;53.668;10.008;2023-02-24T06:48:22;4.80;;;1.25;;
4732;SDS011;2380;53.668;10.008;2023-02-24T06:50:53;3.05;;;1.30;;
4732;SDS011;2380;53.668;10.008;2023-02-24T06:53:23;12.35;;;2.35;;
4732;SDS011;2380;53.668;10.008;2023-02-24T06:55:55;7.70;;;2.53;;
4732;SDS011;2380;53.668;10.008;2023-02-24T06:58:28;7.53;;;2.60;;
4732;SDS011;2380;53.668;10.008;2023-02-24T07:00:57;9.50;;;2.53;;
4732;SDS011;2380;53.668;10.008;2023-02-24T07:03:29;14.73;;;2.78;;
4732;SDS011;2380;53.668;10.008;2023-02-24T07:06:12;4.60;;;1.52;;
4732;SDS011;2380;53.668;10.008;2023-02-24T07:08:49;4.53;;;2.15;;
4732;SDS011;2380;53.668;10.008;2023-02-24T07:11:22;8.73;;;2.15;;
4732;SDS011;2380;53.668;10.008;2023-02-24T07:13:52;7.88;;;2.65;;
4732;SDS011;2380;53.668;10.008;2023-02-24T07:16:24;6.55;;;2.65;;
4732;SDS011;2380;53.668;10.008;2023-02-24T07:18:54;8.23;;;2.50;;
4732;SDS011;2380;53.668;10.008;2023-02-24T07:21:28;8.73;;;2.00;;
4732;SDS011;2380;53.668;10.008;2023-02-24T07:24:05;6.47;;;2.88;;
4732;SDS011;2380;53.668;10.008;2023-02-24T07:26:38;4.30;;;2.00;;
4732;SDS011;2380;53.668;10.008;2023-02-24T07:29:09;8.13;;;2.10;;
4732;SDS011;2380;53.668;10.008;2023-02-24T07:31:42;6.50;;;1.15;;
4732;SDS011;2380;53.668;10.008;2023-02-24T07:34:11;5.80;;;2.30;;
4732;SDS011;2380;53.668;10.008;2023-02-24T07:36:49;6.35;;;2.03;;
4732;SDS011;2380;53.668;10.008;2023-02-24T07:39:20;3.38;;;1.83;;
4732;SDS011;2380;53.668;10.008;2023-02-24T07:41:53;8.20;;;2.58;;
4732;SDS011;2380;53.668;10.008;2023-02-24T07:44:24;2.03;;;1.13;;
4732;SDS011;2380;53.668;10.008;2023-02-24T07:46:54;3.30;;;1.40;;
4732;SDS011;2380;53.668;10.008;2023-02-24T07:49:24;5.25;;;1.98;;
4732;SDS011;2380;53.668;10.008;2023-02-24T07:51:55;14.88;;;1.20;;
4732;SDS011;2380;53.668;10.008;2023-02-24T07:54:25;2.42;;;1.10;;
4732;SDS011;2380;53.668;10.008;2023-02-24T07:56:58;3.38;;;1.65;;
4732;SDS011;2380;53.668;10.008;2023-02-24T07:59:29;5.85;;;1.80;;
4732;SDS011;2380;53.668;10.008;2023-02-24T08:02:00;12.07;;;1.55;;
4732;SDS011;2380;53.668;10.008;2023-02-24T08:04:33;4.80;;;2.08;;
4732;SDS011;2380;53.668;10.008;2023-02-24T08:07:06;3.05;;;1.48;;
4732;SDS011;2380;53.668;10.008;2023-02-24T08:09:39;4.65;;;2.20;;
4732;SDS011;2380;53.668;10.008;2023-02-24T08:12:37;3.97;;;1.90;;
4732;SDS011;2380;53.668;10.008;2023-02-24T08:15:08;3.15;;;1.40;;
4732;SDS011;2380;53.668;10.008;2023-02-24T08:17:50;3.92;;;1.55;;
4732;SDS011;2380;53.668;10.008;2023-02-24T08:20:25;3.15;;;1.67;;
4732;SDS011;2380;53.668;10.008;2023-02-24T08:22:55;1.85;;;1.10;;
4732;SDS011;2380;53.668;10.008;2023-02-24T08:25:25;6.35;;;1.77;;
4732;SDS011;2380;53.668;10.008;2023-02-24T08:28:05;12.75;;;1.75;;
4732;SDS011;2380;53.668;10.008;2023-02-24T08:30:38;3.25;;;1.52;;
4732;SDS011;2380;53.668;10.008;2023-02-24T08:33:12;5.47;;;1.83;;
4732;SDS011;2380;53.668;10.008;2023-02-24T08:35:43;3.67;;;1.70;;
4732;SDS011;2380;53.668;10.008;2023-02-24T08:38:15;6.93;;;1.52;;
4732;SDS011;2380;53.668;10.008;2023-02-24T08:40:46;5.00;;;2.40;;
4732;SDS011;2380;53.668;10.008;2023-02-24T08:43:27;8.45;;;1.70;;
4732;SDS011;2380;53.668;10.008;2023-02-24T08:46:02;2.13;;;1.30;;
4732;SDS011;2380;53.668;10.008;2023-02-24T08:48:39;3.45;;;1.10;;
4732;SDS011;2380;53.668;10.008;2023-02-24T08:51:12;7.47;;;1.50;;
4732;SDS011;2380;53.668;10.008;2023-02-24T08:53:49;2.05;;;1.15;;
4732;SDS011;2380;53.668;10.008;2023-02-24T08:56:20;2.75;;;1.25;;
4732;SDS011;2380;53.668;10.008;2023-02-24T08:58:57;6.05;;;2.13;;
4732;SDS011;2380;53.668;10.008;2023-02-24T09:01:31;3.88;;;2.08;;
4732;SDS011;2380;53.668;10.008;2023-02-24T09:04:03;3.65;;;1.55;;
4732;SDS011;2380;53.668;10.008;2023-02-24T09:06:37;4.65;;;1.92;;
4732;SDS011;2380;53.668;10.008;2023-02-24T09:09:09;4.25;;;1.27;;
4732;SDS011;2380;53.668;10.008;2023-02-24T09:11:47;3.53;;;2.10;;
4732;SDS011;2380;53.668;10.008;2023-02-24T09:14:25;9.43;;;2.45;;
4732;SDS011;2380;53.668;10.008;2023-02-24T09:16:56;5.20;;;2.53;;
4732;SDS011;2380;53.668;10.008;2023-02-24T09:19:37;6.38;;;3.58;;
4732;SDS011;2380;53.668;10.008;2023-02-24T09:22:23;8.70;;;3.88;;
4732;SDS011;2380;53.668;10.008;2023-02-24T09:25:07;5.05;;;2.70;;
4732;SDS011;2380;53.668;10.008;2023-02-24T09:27:50;9.15;;;4.40;;
4732;SDS011;2380;53.668;10.008;2023-02-24T09:30:25;15.80;;;5.53;;
4732;SDS011;2380;53.668;10.008;2023-02-24T09:33:17;13.32;;;6.05;;
4732;SDS011;2380;53.668;10.008;2023-02-24T09:35:49;7.28;;;3.85;;
4732;SDS011;2380;53.668;10.008;2023-02-24T09:38:28;10.65;;;4.18;;
4732;SDS011;2380;53.668;10.008;2023-02-24T09:41:25;15.13;;;5.57;;
4732;SDS011;2380;53.668;10.008;2023-02-24T09:44:11;8.73;;;4.95;;
4732;SDS011;2380;53.668;10.008;2023-02-24T09:46:48;9.05;;;3.83;;
4732;SDS011;2380;53.668;10.008;2023-02-24T09:49:23;8.20;;;4.53;;
4732;SDS011;2380;53.668;10.008;2023-02-24T09:52:08;6.38;;;3.58;;
4732;SDS011;2380;53.668;10.008;2023-02-24T09:54:44;14.93;;;3.63;;
4732;SDS011;2380;53.668;10.008;2023-02-24T09:57:45;7.07;;;3.30;;
4732;SDS011;2380;53.668;10.008;2023-02-24T10:00:55;16.95;;;5.90;;
4732;SDS011;2380;53.668;10.008;2023-02-24T10:03:50;9.68;;;3.53;;
4732;SDS011;2380;53.668;10.008;2023-02-24T10:06:45;10.52;;;4.95;;
4732;SDS011;2380;53.668;10.008;2023-02-24T10:09:17;26.50;;;8.80;;
4732;SDS011;2380;53.668;10.008;2023-02-24T10:11:52;14.52;;;5.95;;
4732;SDS011;2380;53.668;10.008;2023-02-24T10:14:33;12.23;;;4.13;;
4732;SDS011;2380;53.668;10.008;2023-02-24T10:17:11;2.78;;;1.55;;
4732;SDS011;2380;53.668;10.008;2023-02-24T10:19:59;8.25;;;3.00;;
4732;SDS011;2380;53.668;10.008;2023-02-24T10:22:40;3.40;;;2.47;;
4732;SDS011;2380;53.668;10.008;2023-02-24T10:25:24;10.05;;;4.03;;
4732;SDS011;2380;53.668;10.008;2023-02-24T10:28:03;5.38;;;2.85;;
4732;SDS011;2380;53.668;10.008;2023-02-24T10:30:42;8.80;;;3.88;;
4732;SDS011;2380;53.668;10.008;2023-02-24T10:33:17;7.72;;;4.10;;
4732;SDS011;2380;53.668;10.008;2023-02-24T10:36:02;7.90;;;4.15;;
4732;SDS011;2380;53.668;10.008;2023-02-24T10:38:35;8.77;;;3.37;;
4732;SDS011;2380;53.668;10.008;2023-02-24T10:41:07;9.27;;;4.97;;
4732;SDS011;2380;53.668;10.008;2023-02-24T10:43:37;3.88;;;2.25;;
4732;SDS011;2380;53.668;10.008;2023-02-24T10:46:18;5.37;;;2.83;;
4732;SDS011;2380;53.668;10.008;2023-02-24T10:49:08;5.73;;;3.37;;
4732;SDS011;2380;53.668;10.008;2023-02-24T10:51:46;4.60;;;2.43;;
4732;SDS011;2380;53.668;10.008;2023-02-24T10:54:21;5.83;;;1.90;;
4732;SDS011;2380;53.668;10.008;2023-02-24T10:57:05;3.80;;;2.10;;
4732;SDS011;2380;53.668;10.008;2023-02-24T10:59:41;4.77;;;2.47;;
4732;SDS011;2380;53.668;10.008;2023-02-24T11:02:25;8.10;;;3.03;;
4732;SDS011;2380;53.668;10.008;2023-02-24T11:04:59;3.77;;;2.50;;
4732;SDS011;2380;53.668;10.008;2023-02-24T11:08:06;3.63;;;1.83;;
4732;SDS011;2380;53.668;10.008;2023-02-24T11:10:41;5.93;;;2.40;;
4732;SDS011;2380;53.668;10.008;2023-02-24T11:13:32;8.23;;;3.67;;
4732;SDS011;2380;53.668;10.008;2023-02-24T11:16:14;50.10;;;9.80;;
4732;SDS011;2380;53.668;10.008;2023-02-24T11:18:56;12.03;;;4.07;;
4732;SDS011;2380;53.668;10.008;2023-02-24T11:21:26;21.13;;;5.20;;
4732;SDS011;2380;53.668;10.008;2023-02-24T11:23:59;17.17;;;4.03;;
4732;SDS011;2380;53.668;10.008;2023-02-24T11:26:31;6.90;;;3.40;;
4732;SDS011;2380;53.668;10.008;2023-02-24T11:29:10;7.13;;;2.23;;
4732;SDS011;2380;53.668;10.008;2023-02-24T11:31:51;3.77;;;2.37;;
4732;SDS011;2380;53.668;10.008;2023-02-24T11:34:30;12.27;;;2.90;;
4732;SDS011;2380;53.668;10.008;2023-02-24T11:37:05;4.77;;;2.80;;
4732;SDS011;2380;53.668;10.008;2023-02-24T11:39:49;4.30;;;2.77;;
4732;SDS011;2380;53.668;10.008;2023-02-24T11:42:22;5.97;;;2.63;;
4732;SDS011;2380;53.668;10.008;2023-02-24T11:44:55;10.63;;;3.60;;
4732;SDS011;2380;53.668;10.008;2023-02-24T11:47:30;3.40;;;2.00;;
4732;SDS011;2380;53.668;10.008;2023-02-24T11:50:16;9.20;;;2.80;;
4732;SDS011;2380;53.668;10.008;2023-02-24T11:52:51;6.40;;;1.77;;
4732;SDS011;2380;53.668;10.008;2023-02-24T11:55:27;3.53;;;2.40;;
4732;SDS011;2380;53.668;10.008;2023-02-24T11:58:00;5.43;;;2.83;;
4732;SDS011;2380;53.668;10.008;2023-02-24T12:00:32;10.37;;;3.50;;
4732;SDS011;2380;53.668;10.008;2023-02-24T12:03:05;4.23;;;3.03;;
4732;SDS011;2380;53.668;10.008;2023-02-24T12:05:45;9.67;;;3.50;;
4732;SDS011;2380;53.668;10.008;2023-02-24T12:08:17;10.90;;;5.07;;
4732;SDS011;2380;53.668;10.008;2023-02-24T12:10:55;8.20;;;4.07;;
4732;SDS011;2380;53.668;10.008;2023-02-24T12:13:28;4.73;;;2.23;;
4732;SDS011;2380;53.668;10.008;2023-02-24T12:16:05;17.07;;;5.10;;
4732;SDS011;2380;53.668;10.008;2023-02-24T12:18:38;12.70;;;5.03;;
4732;SDS011;2380;53.668;10.008;2023-02-24T12:21:11;6.57;;;3.17;;
4732;SDS011;2380;53.668;10.008;2023-02-24T12:23:46;7.50;;;4.13;;
4732;SDS011;2380;53.668;10.008;2023-02-24T12:26:19;12.63;;;4.77;;
4732;SDS011;2380;53.668;10.008;2023-02-24T12:28:57;7.67;;;2.50;;
4732;SDS011;2380;53.668;10.008;2023-02-24T12:31:37;9.47;;;4.20;;
4732;SDS011;2380;53.668;10.008;2023-02-24T12:34:17;9.20;;;4.33;;
4732;SDS011;2380;53.668;10.008;2023-02-24T12:37:11;12.83;;;4.47;;
4732;SDS011;2380;53.668;10.008;2023-02-24T12:40:00;11.10;;;5.70;;
4732;SDS011;2380;53.668;10.008;2023-02-24T12:42:41;12.87;;;5.87;;
4732;SDS011;2380;53.668;10.008;2023-02-24T12:45:15;15.53;;;5.50;;
4732;SDS011;2380;53.668;10.008;2023-02-24T12:47:48;11.70;;;4.70;;
4732;SDS011;2380;53.668;10.008;2023-02-24T12:50:26;14.23;;;5.20;;
4732;SDS011;2380;53.668;10.008;2023-02-24T12:53:04;14.57;;;5.00;;
4732;SDS011;2380;53.668;10.008;2023-02-24T12:55:41;9.63;;;3.90;;
4732;SDS011;2380;53.668;10.008;2023-02-24T12:58:15;10.50;;;2.83;;
4732;SDS011;2380;53.668;10.008;2023-02-24T13:00:49;21.30;;;4.73;;
4732;SDS011;2380;53.668;10.008;2023-02-24T13:03:27;17.50;;;4.43;;
4732;SDS011;2380;53.668;10.008;2023-02-24T13:06:06;10.33;;;3.40;;
4732;SDS011;2380;53.668;10.008;2023-02-24T13:08:42;11.37;;;3.43;;
4732;SDS011;2380;53.668;10.008;2023-02-24T13:11:21;11.40;;;4.50;;
4732;SDS011;2380;53.668;10.008;2023-02-24T13:14:01;17.90;;;5.33;;
4732;SDS011;2380;53.668;10.008;2023-02-24T13:16:34;17.33;;;4.77;;
4732;SDS011;2380;53.668;10.008;2023-02-24T13:19:05;14.33;;;4.10;;
4732;SDS011;2380;53.668;10.008;2023-02-24T13:21:35;15.80;;;4.60;;
4732;SDS011;2380;53.668;10.008;2023-02-24T13:24:15;10.83;;;4.63;;
4732;SDS011;2380;53.668;10.008;2023-02-24T13:26:48;21.53;;;5.10;;
4732;SDS011;2380;53.668;10.008;2023-02-24T13:29:20;10.97;;;4.20;;
4732;SDS011;2380;53.668;10.008;2023-02-24T13:31:50;29.03;;;8.03;;
4732;SDS011;2380;53.668;10.008;2023-02-24T13:34:28;7.87;;;2.70;;
4732;SDS011;2380;53.668;10.008;2023-02-24T13:37:00;38.83;;;11.63;;
4732;SDS011;2380;53.668;10.008;2023-02-24T13:39:31;30.60;;;12.43;;
4732;SDS011;2380;53.668;10.008;2023-02-24T13:42:04;7.63;;;2.37;;
4732;SDS011;2380;53.668;10.008;2023-02-24T13:44:37;11.03;;;3.30;;
4732;SDS011;2380;53.668;10.008;2023-02-24T13:47:24;16.90;;;5.50;;
4732;SDS011;2380;53.668;10.008;2023-02-24T13:50:17;17.63;;;5.03;;
4732;SDS011;2380;53.668;10.008;2023-02-24T13:52:54;22.60;;;4.90;;
4732;SDS011;2380;53.668;10.008;2023-02-24T13:55:36;14.10;;;1.70;;
4732;SDS011;2380;53.668;10.008;2023-02-24T14:01:09;12.80;;;3.10;;
4732;SDS011;2380;53.668;10.008;2023-02-24T14:03:40;47.87;;;14.50;;
4732;SDS011;2380;53.668;10.008;2023-02-24T14:06:15;43.67;;;9.23;;
4732;SDS011;2380;53.668;10.008;2023-02-24T14:08:48;13.13;;;2.00;;
4732;SDS011;2380;53.668;10.008;2023-02-24T14:11:22;15.03;;;2.83;;
4732;SDS011;2380;53.668;10.008;2023-02-24T14:13:54;23.73;;;6.00;;
4732;SDS011;2380;53.668;10.008;2023-02-24T14:16:28;28.63;;;6.47;;
4732;SDS011;2380;53.668;10.008;2023-02-24T14:19:01;17.03;;;2.63;;
4732;SDS011;2380;53.668;10.008;2023-02-24T14:21:32;12.03;;;1.87;;
4732;SDS011;2380;53.668;10.008;2023-02-24T14:24:02;12.90;;;3.93;;
4732;SDS011;2380;53.668;10.008;2023-02-24T14:26:40;14.80;;;3.67;;
4732;SDS011;2380;53.668;10.008;2023-02-24T14:29:12;9.03;;;1.70;;
4732;SDS011;2380;53.668;10.008;2023-02-24T14:31:48;13.63;;;1.77;;
4732;SDS011;2380;53.668;10.008;2023-02-24T14:34:19;8.83;;;1.63;;
4732;SDS011;2380;53.668;10.008;2023-02-24T14:36:51;9.10;;;3.10;;
4732;SDS011;2380;53.668;10.008;2023-02-24T14:39:22;16.07;;;3.17;;
4732;SDS011;2380;53.668;10.008;2023-02-24T14:42:02;15.33;;;2.00;;
4732;SDS011;2380;53.668;10.008;2023-02-24T14:44:39;18.90;;;4.50;;
4732;SDS011;2380;53.668;10.008;2023-02-24T14:47:12;13.30;;;2.27;;
4732;SDS011;2380;53.668;10.008;2023-02-24T14:49:50;28.10;;;6.00;;
4732;SDS011;2380;53.668;10.008;2023-02-24T14:52:23;14.77;;;2.83;;
4732;SDS011;2380;53.668;10.008;2023-02-24T14:54:56;20.87;;;4.10;;
4732;SDS011;2380;53.668;10.008;2023-02-24T14:57:29;12.70;;;2.00;;
4732;SDS011;2380;53.668;10.008;2023-02-24T15:00:00;10.57;;;1.80;;
4732;SDS011;2380;53.668;10.008;2023-02-24T15:02:41;16.17;;;4.33;;
4732;SDS011;2380;53.668;10.008;2023-02-24T15:05:14;9.87;;;4.27;;
4732;SDS011;2380;53.668;10.008;2023-02-24T15:07:44;13.90;;;1.70;;
4732;SDS011;2380;53.668;10.008;2023-02-24T15:10:18;14.00;;;2.80;;
4732;SDS011;2380;53.668;10.008;2023-02-24T15:12:50;6.03;;;1.60;;
4732;SDS011;2380;53.668;10.008;2023-02-24T15:15:21;7.63;;;1.63;;
4732;SDS011;2380;53.668;10.008;2023-02-24T15:17:55;12.00;;;1.73;;
4732;SDS011;2380;53.668;10.008;2023-02-24T15:20:29;6.00;;;1.10;;
4732;SDS011;2380;53.668;10.008;2023-02-24T15:23:01;12.70;;;1.87;;
4732;SDS011;2380;53.668;10.008;2023-02-24T15:25:39;10.13;;;1.47;;
4732;SDS011;2380;53.668;10.008;2023-02-24T15:28:20;6.40;;;1.27;;
4732;SDS011;2380;53.668;10.008;2023-02-24T15:30:55;4.63;;;1.00;;
4732;SDS011;2380;53.668;10.008;2023-02-24T15:33:31;6.40;;;1.40;;
4732;SDS011;2380;53.668;10.008;2023-02-24T15:36:16;5.70;;;1.00;;
4732;SDS011;2380;53.668;10.008;2023-02-24T15:38:49;7.47;;;1.20;;
4732;SDS011;2380;53.668;10.008;2023-02-24T15:41:20;14.90;;;1.53;;
4732;SDS011;2380;53.668;10.008;2023-02-24T15:43:50;6.60;;;1.43;;
4732;SDS011;2380;53.668;10.008;2023-02-24T15:46:23;11.20;;;1.90;;
4732;SDS011;2380;53.668;10.008;2023-02-24T15:48:58;5.93;;;1.00;;
4732;SDS011;2380;53.668;10.008;2023-02-24T15:51:31;12.27;;;1.93;;
4732;SDS011;2380;53.668;10.008;2023-02-24T15:54:03;9.93;;;1.40;;
4732;SDS011;2380;53.668;10.008;2023-02-24T15:56:34;10.50;;;1.87;;